Time;durP1;ratioP1;P1;durP2;ratioP2;P2;SDS_P1;SDS_P2;PMS_P1;PMS_P2;Temp;Humidity;BMP_temperature;BMP_pressure;BME280_temperature;BME280_humidity;BME280_pressure;Samples;Min_cycle;Max_cycle;Signal;HPM_P1;HPM_P2
2023/10/23 00:00:00;;;;;;;996.53;918.93;;;10.40;99.90;;;;;;5009828;28;20506;-71
2023/10/23 00:02:29;;;;;;;990.97;914.40;;;10.50;99.90;;;;;;4993082;28;20495;-72
2023/10/23 00:04:56;;;;;;;997.40;921.00;;;10.40;99.90;;;;;;5002464;28;20451;-71
2023/10/23 00:07:23;;;;;;;996.93;920.80;;;10.30;99.90;;;;;;5012273;28;20459;-71
2023/10/23 00:09:50;;;;;;;989.87;914.70;;;10.30;99.90;;;;;;5012554;28;20459;-72
2023/10/23 00:12:18;;;;;;;986.70;912.33;;;10.20;99.90;;;;;;5012221;28;20451;-72
2023/10/23 00:14:44;;;;;;;998.47;923.20;;;10.10;99.90;;;;;;5012406;28;20511;-72
2023/10/23 00:17:11;;;;;;;994.53;918.87;;;10.10;99.90;;;;;;5002143;28;20471;-72
2023/10/23 00:19:40;;;;;;;993.20;915.57;;;10.00;99.90;;;;;;4992655;28;20481;-72
2023/10/23 00:22:07;;;;;;;995.33;913.77;;;10.00;99.90;;;;;;4992436;28;20452;-71
2023/10/23 00:24:34;;;;;;;1000.57;918.37;;;10.00;99.90;;;;;;4992529;28;21018;-71
2023/10/23 00:27:00;;;;;;;1005.83;922.00;;;10.00;99.90;;;;;;4994668;28;20501;-72
2023/10/23 00:29:27;;;;;;;1008.33;925.13;;;9.90;99.90;;;;;;4996491;28;20454;-72
2023/10/23 00:31:54;;;;;;;1009.70;924.93;;;9.80;99.90;;;;;;5012800;28;20477;-71
2023/10/23 00:34:21;;;;;;;1020.47;933.20;;;9.90;99.90;;;;;;5015919;28;20464;-71
2023/10/23 00:36:50;;;;;;;1010.67;923.50;;;9.80;99.90;;;;;;5015480;28;20489;-71
2023/10/23 00:39:17;;;;;;;1004.77;917.67;;;9.90;99.90;;;;;;5015995;28;20515;-72
2023/10/23 00:41:44;;;;;;;999.80;912.80;;;9.90;99.90;;;;;;5015845;28;20459;-71
2023/10/23 00:44:11;;;;;;;1007.43;919.90;;;9.90;99.90;;;;;;5015901;28;20454;-72
2023/10/23 00:46:38;;;;;;;1007.70;918.00;;;9.90;99.90;;;;;;5015916;28;20485;-71
2023/10/23 00:49:05;;;;;;;1006.57;917.17;;;9.90;99.90;;;;;;5015276;28;20455;-71
2023/10/23 00:51:33;;;;;;;1000.83;910.37;;;9.90;99.90;;;;;;5015670;28;20521;-71
2023/10/23 00:54:03;;;;;;;1005.33;914.17;;;10.00;99.90;;;;;;5015870;28;20453;-72
2023/10/23 00:56:30;;;;;;;1008.73;918.87;;;10.00;99.90;;;;;;5015095;28;20520;-72
2023/10/23 00:58:59;;;;;;;1010.13;922.63;;;10.00;99.90;;;;;;5004586;28;21021;-71
2023/10/23 01:01:27;;;;;;;1012.07;923.77;;;9.90;99.90;;;;;;5015230;28;21021;-72
2023/10/23 01:03:54;;;;;;;1007.47;917.63;;;9.90;99.90;;;;;;5015242;28;20461;-72
2023/10/23 01:06:21;;;;;;;1011.37;922.00;;;10.00;99.90;;;;;;5015356;28;20451;-72
2023/10/23 01:08:49;;;;;;;1008.80;922.90;;;10.10;99.90;;;;;;5015071;28;20499;-71
2023/10/23 01:11:17;;;;;;;1011.13;927.40;;;10.00;99.90;;;;;;5015361;28;20564;-72
2023/10/23 01:13:44;;;;;;;1015.37;933.07;;;9.90;99.90;;;;;;5015147;28;20457;-72
2023/10/23 01:16:11;;;;;;;1018.27;935.27;;;9.70;99.90;;;;;;5014838;28;20958;-72
2023/10/23 01:18:38;;;;;;;1017.07;930.93;;;9.70;99.90;;;;;;5015110;28;20545;-71
2023/10/23 01:21:05;;;;;;;1005.37;916.33;;;9.70;99.90;;;;;;5014858;28;20769;-71
2023/10/23 01:23:35;;;;;;;1011.10;921.63;;;9.70;99.90;;;;;;5015205;28;20929;-72
2023/10/23 01:26:04;;;;;;;1006.00;915.63;;;9.80;99.90;;;;;;5014776;28;20447;-71
2023/10/23 01:28:31;;;;;;;1006.70;917.43;;;9.80;99.90;;;;;;5014728;28;20450;-72
2023/10/23 01:30:58;;;;;;;1009.17;918.73;;;9.70;99.90;;;;;;5014821;28;20511;-72
2023/10/23 01:33:25;;;;;;;1014.17;923.77;;;9.70;99.90;;;;;;5014701;28;20477;-72
2023/10/23 01:35:52;;;;;;;1017.80;927.90;;;9.70;99.90;;;;;;5014364;28;20511;-72
2023/10/23 01:38:19;;;;;;;1025.90;935.40;;;9.60;99.90;;;;;;5014730;28;20499;-72
2023/10/23 01:40:46;;;;;;;1023.80;933.50;;;9.60;99.90;;;;;;5014763;28;20516;-72
2023/10/23 01:43:14;;;;;;;1022.17;931.87;;;9.50;99.90;;;;;;5014503;28;21004;-71
2023/10/23 01:45:41;;;;;;;1037.73;947.60;;;9.50;99.90;;;;;;5014462;28;20509;-72
2023/10/23 01:48:08;;;;;;;1027.23;935.40;;;9.40;99.90;;;;;;5014550;28;20897;-72
2023/10/23 01:50:36;;;;;;;1024.20;931.20;;;9.50;99.90;;;;;;5014493;28;20456;-72
2023/10/23 01:53:03;;;;;;;1022.07;929.67;;;9.50;99.90;;;;;;5014281;28;20500;-72
2023/10/23 01:55:30;;;;;;;1026.40;934.00;;;9.50;99.90;;;;;;5013930;28;20526;-72
2023/10/23 01:57:57;;;;;;;1026.60;934.90;;;9.40;99.90;;;;;;4998552;28;20481;-72
2023/10/23 02:00:26;;;;;;;1020.67;927.20;;;9.40;99.90;;;;;;4997940;28;20455;-72
2023/10/23 02:02:53;;;;;;;1022.57;928.47;;;9.40;99.90;;;;;;5014486;28;20540;-72
2023/10/23 02:05:20;;;;;;;1026.43;931.33;;;9.40;99.90;;;;;;5014351;28;20475;-72
2023/10/23 02:07:47;;;;;;;1022.07;927.03;;;9.40;99.90;;;;;;5014398;28;20530;-72
2023/10/23 02:10:14;;;;;;;1020.77;926.83;;;9.40;99.90;;;;;;5014333;28;20799;-72
2023/10/23 02:12:41;;;;;;;1022.40;929.23;;;9.30;99.90;;;;;;5010583;28;20791;-72
2023/10/23 02:15:10;;;;;;;1026.50;931.73;;;9.20;99.90;;;;;;4994626;28;20533;-72
2023/10/23 02:17:39;;;;;;;1031.77;937.50;;;9.20;99.90;;;;;;4994656;28;20506;-72
2023/10/23 02:20:06;;;;;;;1028.83;936.27;;;9.10;99.90;;;;;;4994584;28;20449;-72
2023/10/23 02:22:34;;;;;;;1022.60;930.27;;;9.00;99.90;;;;;;4994893;28;20450;-72
2023/10/23 02:25:01;;;;;;;1036.73;944.10;;;8.90;99.90;;;;;;4994208;28;20531;-72
2023/10/23 02:27:28;;;;;;;1035.17;944.10;;;8.80;99.90;;;;;;5011263;28;20533;-72
2023/10/23 02:29:55;;;;;;;1037.00;946.00;;;8.60;99.90;;;;;;5013571;28;20453;-72
2023/10/23 02:32:22;;;;;;;1035.17;941.30;;;8.40;99.90;;;;;;5013230;28;20533;-72
2023/10/23 02:34:50;;;;;;;1030.50;935.17;;;8.40;99.90;;;;;;5013221;28;20507;-72
2023/10/23 02:37:18;;;;;;;1029.07;931.03;;;8.30;99.90;;;;;;5013803;28;20469;-72
2023/10/23 02:39:45;;;;;;;1019.43;923.03;;;8.20;99.90;;;;;;5013610;28;20965;-72
2023/10/23 02:42:12;;;;;;;1023.23;922.83;;;8.10;99.90;;;;;;5013520;28;20445;-72
2023/10/23 02:44:39;;;;;;;1021.00;919.13;;;8.10;99.90;;;;;;5012828;28;20459;-72
2023/10/23 02:47:06;;;;;;;1020.53;916.17;;;8.00;99.90;;;;;;5013384;28;20961;-72
2023/10/23 02:49:33;;;;;;;1024.33;916.90;;;7.90;99.90;;;;;;5012576;28;20452;-72
2023/10/23 02:52:01;;;;;;;1020.77;911.57;;;7.90;99.90;;;;;;5013039;28;20518;-72
2023/10/23 02:54:29;;;;;;;1024.80;915.60;;;7.80;99.90;;;;;;5012511;28;20492;-72
2023/10/23 02:56:56;;;;;;;1022.53;914.13;;;7.80;99.90;;;;;;5011965;28;20968;-72
2023/10/23 02:59:23;;;;;;;1028.87;918.87;;;7.70;99.90;;;;;;5012233;28;20540;-72
2023/10/23 03:01:51;;;;;;;1028.97;918.83;;;7.70;99.90;;;;;;5012257;28;20507;-72
2023/10/23 03:04:18;;;;;;;1034.57;922.07;;;7.70;99.90;;;;;;5013438;28;20757;-72
2023/10/23 03:06:45;;;;;;;1040.83;925.60;;;7.70;99.90;;;;;;5008298;28;20442;-72
2023/10/23 03:09:14;;;;;;;1045.83;921.93;;;7.70;99.90;;;;;;4993650;28;20540;-72
2023/10/23 03:11:41;;;;;;;1056.80;915.40;;;7.70;99.90;;;;;;5008358;28;20452;-72
2023/10/23 03:14:10;;;;;;;1043.30;908.30;;;7.80;99.90;;;;;;5012411;28;20947;-72
2023/10/23 03:16:37;;;;;;;1078.47;920.20;;;7.70;99.90;;;;;;5012557;28;21061;-72
2023/10/23 03:19:04;;;;;;;1070.17;921.73;;;7.70;99.90;;;;;;5011778;28;20456;-72
2023/10/23 03:21:32;;;;;;;1074.07;917.00;;;7.80;99.90;;;;;;5012168;28;20466;-72
2023/10/23 03:23:59;;;;;;;1072.40;922.23;;;7.80;99.90;;;;;;5012959;28;20452;-72
2023/10/23 03:26:27;;;;;;;1075.57;922.30;;;7.70;99.90;;;;;;5012581;28;20492;-72
2023/10/23 03:28:54;;;;;;;1082.07;925.07;;;7.70;99.90;;;;;;5012847;28;20463;-73
2023/10/23 03:31:21;;;;;;;1081.40;920.33;;;7.60;99.90;;;;;;5012758;28;20543;-73
2023/10/23 03:33:49;;;;;;;1066.73;915.67;;;7.60;99.90;;;;;;5012701;28;20460;-73
2023/10/23 03:36:17;;;;;;;1078.77;925.40;;;7.60;99.90;;;;;;5012637;28;20567;-73
2023/10/23 03:38:43;;;;;;;1053.93;923.37;;;7.50;99.90;;;;;;5012685;28;20830;-73
2023/10/23 03:41:10;;;;;;;1077.87;925.53;;;7.50;99.90;;;;;;5012317;28;20491;-73
2023/10/23 03:43:40;;;;;;;1058.57;916.20;;;7.40;99.90;;;;;;5012250;28;20458;-73
2023/10/23 03:46:07;;;;;;;1035.10;891.73;;;7.40;99.90;;;;;;5012182;28;20452;-73
2023/10/23 03:48:35;;;;;;;1050.07;933.77;;;7.30;99.90;;;;;;5012651;28;20540;-73
2023/10/23 03:51:03;;;;;;;1050.83;924.93;;;7.30;99.90;;;;;;5011991;28;20463;-73
2023/10/23 03:53:30;;;;;;;1032.40;902.57;;;7.20;99.90;;;;;;5011448;28;20494;-73
2023/10/23 03:55:57;;;;;;;1035.40;913.40;;;7.30;99.90;;;;;;5012037;28;20523;-73
2023/10/23 03:58:24;;;;;;;1029.47;909.60;;;7.30;99.90;;;;;;5012249;28;20830;-73
2023/10/23 04:00:55;;;;;;;1035.07;908.87;;;7.30;99.90;;;;;;5010866;28;20480;-73
2023/10/23 04:03:22;;;;;;;1036.00;907.63;;;7.30;99.90;;;;;;5012051;28;20546;-73
2023/10/23 04:05:49;;;;;;;1065.33;907.50;;;7.30;99.90;;;;;;5011695;28;21042;-73
2023/10/23 04:08:16;;;;;;;1042.10;892.10;;;7.30;99.90;;;;;;5012176;28;20451;-73
2023/10/23 04:10:47;;;;;;;1026.90;870.23;;;7.30;99.90;;;;;;5009321;28;20488;-73
2023/10/23 04:13:14;;;;;;;1044.10;873.10;;;7.30;99.90;;;;;;5002020;28;20459;-73
2023/10/23 04:15:41;;;;;;;1045.37;880.90;;;7.30;99.90;;;;;;5011871;28;20972;-73
2023/10/23 04:18:10;;;;;;;1058.17;876.83;;;7.40;99.90;;;;;;5012334;28;20998;-73
2023/10/23 04:20:37;;;;;;;1055.17;894.80;;;7.40;99.90;;;;;;5012329;28;20490;-73
2023/10/23 04:23:03;;;;;;;1049.57;895.13;;;7.40;99.90;;;;;;5012409;28;20793;-73
2023/10/23 04:25:30;;;;;;;1063.00;904.00;;;7.40;99.90;;;;;;5011861;28;20552;-73
2023/10/23 04:27:57;;;;;;;1069.90;907.67;;;7.40;99.90;;;;;;5001843;28;20474;-73
2023/10/23 04:30:24;;;;;;;1084.00;924.93;;;7.40;99.90;;;;;;5012057;28;20457;-73
2023/10/23 04:32:51;;;;;;;1082.70;911.40;;;7.40;99.90;;;;;;5012074;28;20482;-73
2023/10/23 04:35:20;;;;;;;1088.57;914.07;;;7.50;99.90;;;;;;5011947;28;20456;-73
2023/10/23 04:37:46;;;;;;;1079.07;902.60;;;7.50;99.90;;;;;;5012314;28;20487;-73
2023/10/23 04:40:14;;;;;;;1082.33;905.40;;;7.50;99.90;;;;;;5012012;28;20449;-73
2023/10/23 04:42:41;;;;;;;1075.27;889.73;;;7.50;99.90;;;;;;5012007;28;20499;-73
2023/10/23 04:45:08;;;;;;;1084.50;885.93;;;7.50;99.90;;;;;;5012219;28;20452;-73
2023/10/23 04:47:35;;;;;;;1072.53;881.00;;;7.50;99.90;;;;;;5011981;28;20453;-73
2023/10/23 04:50:03;;;;;;;1085.83;890.37;;;7.60;99.90;;;;;;5012104;28;20455;-73
2023/10/23 04:52:32;;;;;;;1087.30;889.03;;;7.60;99.90;;;;;;5012050;28;20501;-73
2023/10/23 04:55:00;;;;;;;1073.37;879.47;;;7.60;99.90;;;;;;5011990;28;20455;-73
2023/10/23 04:57:27;;;;;;;1067.87;885.77;;;7.50;99.90;;;;;;5012098;28;20853;-73
2023/10/23 04:59:54;;;;;;;1059.80;875.03;;;7.60;99.90;;;;;;5011373;28;20451;-73
2023/10/23 05:02:21;;;;;;;1065.30;879.37;;;7.60;99.90;;;;;;5011719;28;20874;-73
2023/10/23 05:04:48;;;;;;;1081.77;877.47;;;7.50;99.90;;;;;;5010862;28;20555;-73
2023/10/23 05:07:15;;;;;;;1067.40;879.70;;;7.50;99.90;;;;;;5011458;28;20971;-73
2023/10/23 05:09:43;;;;;;;1061.77;870.57;;;7.50;99.90;;;;;;5011714;28;20970;-73
2023/10/23 05:12:10;;;;;;;1078.77;878.10;;;7.40;99.90;;;;;;5012360;28;20555;-73
2023/10/23 05:14:37;;;;;;;1078.47;880.53;;;7.50;99.90;;;;;;5015251;28;20448;-73
2023/10/23 05:17:04;;;;;;;1091.17;880.43;;;7.40;99.90;;;;;;5015495;28;20514;-73
2023/10/23 05:19:31;;;;;;;1085.77;880.40;;;7.40;99.90;;;;;;5015290;28;20455;-73
2023/10/23 05:21:58;;;;;;;1087.90;880.90;;;7.50;99.90;;;;;;5014704;28;20544;-73
2023/10/23 05:24:25;;;;;;;1088.37;887.80;;;7.50;99.90;;;;;;5015333;28;20457;-73
2023/10/23 05:26:53;;;;;;;1077.20;893.43;;;7.50;99.90;;;;;;5015144;28;20543;-73
2023/10/23 05:29:20;;;;;;;1082.07;890.10;;;7.40;99.90;;;;;;5014913;28;20451;-73
2023/10/23 05:31:48;;;;;;;1078.17;885.67;;;7.40;99.90;;;;;;5015028;28;20455;-73
2023/10/23 05:34:15;;;;;;;1074.70;889.77;;;7.30;99.90;;;;;;5014664;28;20452;-73
2023/10/23 05:36:42;;;;;;;1086.73;885.50;;;7.30;99.90;;;;;;5014882;28;20491;-73
2023/10/23 05:39:08;;;;;;;1072.57;885.80;;;7.30;99.90;;;;;;5014465;28;20463;-73
2023/10/23 05:41:35;;;;;;;1073.40;879.90;;;7.30;99.90;;;;;;5013790;28;20728;-73
2023/10/23 05:44:04;;;;;;;1078.87;884.53;;;7.20;99.90;;;;;;5013466;28;20474;-73
2023/10/23 05:46:30;;;;;;;1077.37;890.20;;;7.20;99.90;;;;;;5014262;28;20456;-73
2023/10/23 05:48:57;;;;;;;1079.73;891.73;;;7.20;99.90;;;;;;5014112;28;20455;-73
2023/10/23 05:51:24;;;;;;;1067.90;888.43;;;7.10;99.90;;;;;;5013813;28;20458;-73
2023/10/23 05:53:51;;;;;;;1074.67;891.60;;;7.00;99.90;;;;;;5013570;28;20452;-73
2023/10/23 05:56:18;;;;;;;1081.60;888.90;;;7.00;99.90;;;;;;5013841;28;20872;-73
2023/10/23 05:58:46;;;;;;;1073.67;893.10;;;7.00;99.90;;;;;;5013963;28;21014;-73
2023/10/23 06:01:15;;;;;;;1063.50;887.97;;;6.90;99.90;;;;;;5014573;28;20486;-73
2023/10/23 06:03:42;;;;;;;1064.97;886.63;;;6.90;99.90;;;;;;5014571;28;20522;-73
2023/10/23 06:06:09;;;;;;;1068.67;879.13;;;6.80;99.90;;;;;;5014281;28;20537;-73
2023/10/23 06:08:36;;;;;;;1063.90;884.53;;;6.80;99.90;;;;;;5014637;28;20958;-73
2023/10/23 06:11:04;;;;;;;1069.60;881.60;;;6.70;99.90;;;;;;5014326;28;20553;-73
2023/10/23 06:13:31;;;;;;;1059.73;874.40;;;6.80;99.90;;;;;;5013809;28;20446;-74
2023/10/23 06:16:04;;;;;;;1040.60;869.40;;;6.80;99.90;;;;;;5014430;28;20456;-73
2023/10/23 06:18:32;;;;;;;1049.47;873.10;;;6.80;99.90;;;;;;5014285;28;20473;-73
2023/10/23 06:21:00;;;;;;;1057.60;874.47;;;6.80;99.90;;;;;;5014080;28;20502;-74
2023/10/23 06:23:27;;;;;;;1065.10;875.90;;;6.80;99.90;;;;;;5013797;28;20928;-74
2023/10/23 06:25:57;;;;;;;1078.27;879.33;;;6.90;99.90;;;;;;5014211;28;20450;-74
2023/10/23 06:28:23;;;;;;;1081.40;877.33;;;7.00;99.90;;;;;;5014014;28;20530;-73
2023/10/23 06:30:50;;;;;;;1087.80;887.33;;;7.00;99.90;;;;;;5013678;28;20486;-74
2023/10/23 06:33:17;;;;;;;1082.93;874.03;;;7.10;99.90;;;;;;5013829;28;20538;-74
2023/10/23 06:35:45;;;;;;;1068.30;871.40;;;7.10;99.90;;;;;;5013561;28;21041;-74
2023/10/23 06:38:13;;;;;;;1071.73;871.37;;;7.10;99.90;;;;;;5013479;28;20581;-74
2023/10/23 06:40:39;;;;;;;1064.83;872.53;;;7.10;99.90;;;;;;5013775;28;20841;-74
2023/10/23 06:43:06;;;;;;;1067.07;873.87;;;7.10;99.90;;;;;;5013503;28;20939;-74
2023/10/23 06:45:36;;;;;;;1074.23;876.60;;;7.10;99.90;;;;;;5013363;28;20461;-74
2023/10/23 06:48:04;;;;;;;1064.70;864.50;;;7.10;99.90;;;;;;5012924;28;20536;-74
2023/10/23 06:50:30;;;;;;;1090.45;879.78;;;7.10;99.90;;;;;;5013239;28;20848;-76
2023/10/23 06:52:59;;;;;;;1096.95;877.92;;;7.10;99.90;;;;;;5012434;28;20549;-76
2023/10/23 06:55:27;;;;;;;1068.03;877.40;;;7.20;99.90;;;;;;5013617;28;20619;-76
2023/10/23 06:57:54;;;;;;;1069.37;875.93;;;7.30;99.90;;;;;;5013413;28;20528;-76
2023/10/23 07:00:21;;;;;;;1052.40;873.90;;;7.30;99.90;;;;;;5013433;28;20487;-76
2023/10/23 07:02:49;;;;;;;1061.43;887.57;;;7.50;99.90;;;;;;5013184;28;20506;-76
2023/10/23 07:05:16;;;;;;;1075.17;874.17;;;7.50;99.90;;;;;;5012938;28;20961;-76
2023/10/23 07:07:43;;;;;;;1076.90;878.07;;;7.60;99.90;;;;;;4992981;28;20822;-76
2023/10/23 07:10:11;;;;;;;1082.13;867.30;;;7.70;99.90;;;;;;4993404;28;20518;-76
2023/10/23 07:12:38;;;;;;;1075.53;872.33;;;7.80;99.90;;;;;;4992988;28;20459;-76
2023/10/23 07:15:06;;;;;;;1061.40;857.20;;;7.90;99.90;;;;;;4993318;28;20536;-76
2023/10/23 07:17:34;;;;;;;1070.97;864.13;;;8.00;99.90;;;;;;4992944;28;20579;-76
2023/10/23 07:20:00;;;;;;;1076.07;871.50;;;8.00;99.90;;;;;;4993324;28;20445;-76
2023/10/23 07:22:27;;;;;;;1071.67;869.50;;;8.10;99.90;;;;;;4993224;28;20457;-76
2023/10/23 07:24:55;;;;;;;1075.17;872.07;;;8.20;99.90;;;;;;4993181;28;20464;-76
2023/10/23 07:27:24;;;;;;;1080.13;862.50;;;8.30;99.90;;;;;;4992903;28;20508;-76
2023/10/23 07:29:50;;;;;;;1081.93;858.30;;;8.40;99.90;;;;;;4992970;28;20458;-76
2023/10/23 07:32:17;;;;;;;1078.00;857.70;;;8.60;99.90;;;;;;4992468;28;20454;-76
2023/10/23 07:34:44;;;;;;;1082.67;870.17;;;8.70;99.90;;;;;;4992428;28;20545;-76
2023/10/23 07:37:17;;;;;;;1098.15;856.35;;;8.80;99.90;;;;;;4992706;28;20452;-76
2023/10/23 07:39:47;;;;;;;1108.10;871.42;;;8.90;99.90;;;;;;4993076;28;20917;-76
2023/10/23 07:42:14;;;;;;;1041.17;860.90;;;9.10;99.90;;;;;;4994008;28;20204;-76
2023/10/23 07:44:42;;;;;;;1045.90;863.77;;;9.20;99.90;;;;;;4993305;28;20540;-74
2023/10/23 07:47:09;;;;;;;1041.20;859.77;;;9.40;99.90;;;;;;4993350;28;20454;-74
2023/10/23 07:49:36;;;;;;;1033.57;862.97;;;9.50;99.90;;;;;;4992928;28;20537;-74
2023/10/23 07:52:03;;;;;;;1051.37;874.10;;;9.60;99.90;;;;;;4992990;28;20554;-74
2023/10/23 07:54:31;;;;;;;1034.70;855.87;;;9.70;99.90;;;;;;4992909;28;20485;-74
2023/10/23 07:56:58;;;;;;;1019.07;863.00;;;9.80;99.90;;;;;;4992967;28;20462;-74
2023/10/23 07:59:26;;;;;;;1009.87;858.00;;;9.90;99.90;;;;;;4992955;28;20478;-74
2023/10/23 08:01:54;;;;;;;999.70;852.27;;;9.90;99.90;;;;;;4992991;28;20479;-74
2023/10/23 08:04:21;;;;;;;988.40;850.63;;;9.90;99.90;;;;;;4993016;28;20461;-74
2023/10/23 08:06:48;;;;;;;978.27;859.83;;;10.00;99.90;;;;;;4992916;28;20775;-74
2023/10/23 08:09:15;;;;;;;959.53;852.97;;;10.10;99.90;;;;;;4992797;28;20489;-74
2023/10/23 08:11:42;;;;;;;968.10;863.70;;;10.10;99.90;;;;;;4992735;28;20451;-74
2023/10/23 08:14:09;;;;;;;972.17;868.57;;;10.10;99.90;;;;;;4992681;28;20454;-74
2023/10/23 08:16:36;;;;;;;969.00;866.40;;;10.30;99.90;;;;;;4992820;28;20515;-74
2023/10/23 08:19:04;;;;;;;969.43;870.40;;;10.40;99.90;;;;;;4992864;28;20516;-74
2023/10/23 08:21:32;;;;;;;979.00;881.17;;;10.50;99.90;;;;;;4992916;28;20894;-74
2023/10/23 08:23:59;;;;;;;988.60;894.50;;;10.50;99.90;;;;;;4992709;28;20962;-74
2023/10/23 08:26:26;;;;;;;975.90;884.47;;;10.60;99.90;;;;;;4992595;28;20540;-74
2023/10/23 08:28:53;;;;;;;972.43;882.37;;;10.80;99.90;;;;;;4992931;28;20801;-74
2023/10/23 08:31:20;;;;;;;986.67;899.37;;;10.90;99.90;;;;;;4992686;28;20459;-74
2023/10/23 08:33:48;;;;;;;987.90;905.53;;;11.00;99.90;;;;;;4992560;28;20453;-74
2023/10/23 08:36:16;;;;;;;985.17;904.27;;;11.10;99.90;;;;;;4992684;28;20820;-73
2023/10/23 08:38:43;;;;;;;981.53;907.03;;;11.20;99.90;;;;;;4992472;28;20477;-74
2023/10/23 08:41:12;;;;;;;967.70;897.13;;;11.20;99.90;;;;;;4992264;28;20458;-73
2023/10/23 08:43:39;;;;;;;940.67;874.97;;;11.40;99.90;;;;;;4992587;28;20490;-73
2023/10/23 08:46:08;;;;;;;905.73;845.83;;;11.50;99.90;;;;;;4992625;28;20551;-73
2023/10/23 08:48:35;;;;;;;882.93;825.83;;;11.70;99.90;;;;;;4995116;28;20502;-73
2023/10/23 08:51:03;;;;;;;760.67;718.33;;;11.80;99.90;;;;;;4996301;28;20455;-73
2023/10/23 08:53:34;;;;;;;686.30;651.57;;;12.00;99.90;;;;;;4996361;28;20560;-73
2023/10/23 08:56:03;;;;;;;629.90;601.00;;;12.20;99.90;;;;;;4994911;28;20447;-73
2023/10/23 08:58:34;;;;;;;540.30;516.73;;;12.20;99.90;;;;;;4995671;28;20483;-73
2023/10/23 09:01:00;;;;;;;389.40;374.40;;;12.20;99.90;;;;;;4995797;28;20459;-73
2023/10/23 09:03:28;;;;;;;243.53;234.20;;;12.40;99.90;;;;;;4995578;28;20457;-73
2023/10/23 09:05:58;;;;;;;223.97;215.90;;;12.20;99.90;;;;;;4995298;28;20459;-73
2023/10/23 09:08:27;;;;;;;196.43;189.03;;;12.10;99.90;;;;;;4995729;28;20924;-73
2023/10/23 09:11:03;;;;;;;347.57;334.97;;;11.90;99.90;;;;;;4995702;28;20455;-73
2023/10/23 09:13:36;;;;;;;352.70;339.77;;;12.10;99.90;;;;;;4995343;28;20452;-73
2023/10/23 09:16:04;;;;;;;382.87;368.70;;;12.20;99.90;;;;;;4995474;28;20456;-73
2023/10/23 09:18:31;;;;;;;280.00;269.80;;;12.40;99.90;;;;;;4995030;28;21009;-72
2023/10/23 09:20:58;;;;;;;382.40;368.57;;;12.30;99.90;;;;;;5008821;28;20908;-72
2023/10/23 09:23:25;;;;;;;433.93;416.93;;;12.50;99.90;;;;;;5014642;28;20450;-72
2023/10/23 09:25:58;;;;;;;287.27;276.97;;;12.50;99.90;;;;;;5014994;28;20816;-72
2023/10/23 09:28:27;;;;;;;212.10;204.27;;;12.50;99.90;;;;;;5015233;28;20447;-72
2023/10/23 09:30:54;;;;;;;284.23;273.93;;;12.50;99.90;;;;;;5015052;28;20455;-71
2023/10/23 09:33:22;;;;;;;198.67;191.17;;;12.60;99.90;;;;;;5014697;28;20457;-71
2023/10/23 09:35:50;;;;;;;212.70;204.93;;;12.60;99.90;;;;;;5015115;28;20875;-71
2023/10/23 09:38:18;;;;;;;231.20;222.47;;;12.50;99.90;;;;;;5015070;28;20479;-71
2023/10/23 09:40:46;;;;;;;234.50;225.93;;;12.70;99.90;;;;;;5015051;28;20482;-71
2023/10/23 09:43:13;;;;;;;142.43;136.80;;;12.80;99.90;;;;;;5013972;28;20506;-71
2023/10/23 09:45:43;;;;;;;169.97;163.40;;;12.70;99.90;;;;;;5013635;28;20462;-71
2023/10/23 09:48:12;;;;;;;125.33;120.27;;;12.70;99.90;;;;;;5014229;28;20455;-71
2023/10/23 09:50:41;;;;;;;149.80;143.73;;;12.60;99.90;;;;;;5014128;28;20536;-70
2023/10/23 09:53:11;;;;;;;163.23;156.43;;;12.70;99.90;;;;;;5013608;28;20951;-71
2023/10/23 09:55:42;;;;;;;245.63;236.83;;;12.70;99.90;;;;;;5013849;28;20455;-70
2023/10/23 09:58:14;;;;;;;282.60;272.63;;;12.80;99.90;;;;;;5013933;28;20456;-70
2023/10/23 10:00:47;;;;;;;225.10;216.50;;;12.80;99.90;;;;;;5014147;28;20551;-71
2023/10/23 10:03:17;;;;;;;226.50;218.63;;;12.80;99.90;;;;;;5014222;28;20736;-70
2023/10/23 10:05:50;;;;;;;247.10;237.80;;;12.90;99.90;;;;;;5014086;28;20457;-70
2023/10/23 10:08:19;;;;;;;270.93;261.43;;;13.00;99.90;;;;;;5014205;28;20456;-70
2023/10/23 10:10:48;;;;;;;165.60;159.30;;;13.00;99.90;;;;;;5014072;28;20822;-70
2023/10/23 10:13:16;;;;;;;191.60;184.40;;;12.80;99.90;;;;;;5014045;28;20508;-70
2023/10/23 10:15:45;;;;;;;189.33;182.00;;;12.80;99.90;;;;;;5014132;28;20511;-70
2023/10/23 10:18:16;;;;;;;188.53;181.50;;;12.80;99.90;;;;;;5014152;28;20484;-70
2023/10/23 10:20:46;;;;;;;173.87;167.17;;;12.90;99.90;;;;;;5013959;28;20452;-70
2023/10/23 10:23:16;;;;;;;209.93;202.43;;;12.80;99.90;;;;;;5013687;28;20458;-70
2023/10/23 10:25:44;;;;;;;219.40;211.47;;;12.80;99.90;;;;;;5013974;28;20453;-70
2023/10/23 10:28:11;;;;;;;174.90;168.43;;;13.00;99.90;;;;;;5013800;28;20478;-70
2023/10/23 10:30:45;;;;;;;188.80;182.17;;;13.00;99.90;;;;;;5013869;28;21037;-70
2023/10/23 10:33:16;;;;;;;217.63;210.20;;;13.10;99.90;;;;;;5013553;28;20543;-70
2023/10/23 10:35:49;;;;;;;109.00;104.53;;;13.20;99.90;;;;;;5013271;28;20470;-70
2023/10/23 10:38:20;;;;;;;81.70;78.20;;;13.10;99.90;;;;;;5013979;28;20463;-70
2023/10/23 10:40:58;;;;;;;99.10;95.17;;;13.20;99.90;;;;;;5013809;28;20891;-70
2023/10/23 10:43:26;;;;;;;96.37;92.10;;;13.30;99.90;;;;;;5013373;28;20448;-70
2023/10/23 10:45:56;;;;;;;80.67;77.10;;;13.40;99.90;;;;;;5013227;28;20866;-70
2023/10/23 10:48:24;;;;;;;49.90;47.30;;;13.50;99.90;;;;;;5013463;28;20963;-70
2023/10/23 10:50:53;;;;;;;53.73;51.07;;;13.40;99.90;;;;;;5013358;28;20449;-70
2023/10/23 10:53:22;;;;;;;38.60;36.40;;;13.60;99.90;;;;;;5012909;28;20464;-70
2023/10/23 10:55:49;;;;;;;29.00;27.07;;;13.70;99.90;;;;;;5011799;28;20816;-70
2023/10/23 10:58:17;;;;;;;32.20;30.17;;;13.50;99.90;;;;;;5012589;28;20531;-70
2023/10/23 11:00:46;;;;;;;25.57;23.57;;;13.80;99.90;;;;;;5012986;28;20547;-70
2023/10/23 11:03:14;;;;;;;16.60;15.27;;;14.00;99.90;;;;;;5013219;28;20458;-70
2023/10/23 11:05:44;;;;;;;13.87;11.90;;;14.10;99.90;;;;;;5013047;28;20445;-70
2023/10/23 11:08:11;;;;;;;12.67;10.97;;;14.00;99.90;;;;;;5013250;28;20480;-70
2023/10/23 11:10:38;;;;;;;10.60;9.50;;;14.00;99.90;;;;;;5012431;28;20449;-70
2023/10/23 11:13:06;;;;;;;12.93;10.13;;;14.20;99.90;;;;;;5012596;28;20814;-70
2023/10/23 11:15:33;;;;;;;10.90;9.20;;;14.30;99.90;;;;;;5013282;28;20453;-70
2023/10/23 11:18:00;;;;;;;9.57;8.67;;;14.40;99.90;;;;;;5013731;28;20553;-70
2023/10/23 11:20:30;;;;;;;7.93;7.07;;;14.60;99.90;;;;;;5014057;28;20963;-70
2023/10/23 11:22:58;;;;;;;15.23;13.63;;;14.70;99.90;;;;;;5013790;28;20453;-70
2023/10/23 11:25:24;;;;;;;7.07;5.73;;;14.70;99.90;;;;;;5013419;28;20448;-70
2023/10/23 11:27:52;;;;;;;8.10;5.47;;;14.60;99.90;;;;;;5013420;28;20544;-70
2023/10/23 11:30:19;;;;;;;14.90;6.20;;;14.60;99.90;;;;;;5013468;28;20459;-70
2023/10/23 11:32:45;;;;;;;9.90;5.80;;;14.70;99.90;;;;;;5013280;28;20966;-70
2023/10/23 11:35:12;;;;;;;8.70;5.47;;;14.70;99.90;;;;;;5013337;28;20869;-70
2023/10/23 11:37:41;;;;;;;10.03;5.77;;;14.70;99.60;;;;;;5013335;28;20445;-71
2023/10/23 11:40:10;;;;;;;10.63;5.47;;;14.70;99.60;;;;;;5013467;28;20472;-71
2023/10/23 11:42:47;;;;;;;6.90;5.20;;;14.60;99.50;;;;;;5013287;28;20541;-71
2023/10/23 11:45:15;;;;;;;7.70;5.20;;;14.80;99.60;;;;;;5013461;28;20463;-71
2023/10/23 11:47:43;;;;;;;9.67;5.47;;;14.80;99.60;;;;;;5013353;28;20539;-71
2023/10/23 11:50:12;;;;;;;9.55;5.82;;;14.90;99.90;;;;;;5013135;28;20877;-71
2023/10/23 11:52:45;;;;;;;7.10;4.70;;;14.80;99.60;;;;;;5012783;28;20210;-71
2023/10/23 11:55:14;;;;;;;7.57;5.10;;;14.70;99.60;;;;;;5013295;28;20452;-70
2023/10/23 11:57:41;;;;;;;7.50;4.27;;;14.80;99.60;;;;;;5013176;28;20456;-70
2023/10/23 12:00:12;;;;;;;8.77;4.47;;;14.60;99.50;;;;;;5012828;28;20477;-70
2023/10/23 12:02:40;;;;;;;9.33;5.47;;;14.40;99.40;;;;;;5013203;28;20206;-71
2023/10/23 12:05:12;;;;;;;8.27;5.20;;;14.60;99.50;;;;;;5012847;28;20460;-70
2023/10/23 12:07:44;;;;;;;8.70;4.33;;;14.60;99.50;;;;;;5013141;28;20788;-71
2023/10/23 12:10:11;;;;;;;6.00;3.90;;;14.50;99.50;;;;;;5013109;28;20494;-70
2023/10/23 12:12:40;;;;;;;7.30;4.17;;;14.60;99.50;;;;;;5012927;28;20536;-70